Flight Track Log - Related Links

Times and Time Zones

All times are in EDT time to prevent confusion due to time zone crossing. See the N510SR flight status page for this flight to view local times or setup timezone preferences in your user account.

Time Position Orientation Groundspeed Altitude Reporting Facility
EDT Latitude Longitude Course Direction KTS MPH feet Rate Location/Type
Tue 10:34:33 PM 40.9333 -74.1000 288° West 257 296 4,100  Level New York TRACON
Tue 10:35:33 PM 40.9167 -74.2000 258° West 267 307 4,100  Level New York TRACON
Tue 10:36:33 PM 40.9000 -74.3000 258° West 274 315 4,100  Level New York TRACON
Tue 10:37:39 PM 40.8667 -74.4167 249° West 271 312 4,100  Level New York TRACON
Tue 10:38:00 PM 40.7054 -74.3988 242° Southwest  Level FlightAware Approximate
Tue 10:38:27 PM 40.8667 -74.4833 270° West 273 314 4,100  Level New York TRACON
Tue 10:40:00 PM 40.8402 -74.6040 254° West  Level Estimated
Tue 10:47:00 PM 40.7189 -75.1476 254° West  Level Estimated
Tue 10:48:00 PM 40.7014 -75.2251 253° West  Level Estimated
Tue 10:49:00 PM 40.6838 -75.3025 253° West  Level Estimated
Tue 10:50:00 PM 40.6662 -75.3799 253° West  Level Estimated
Tue 10:51:00 PM 40.6524 -75.4404 253° West  Level Estimated
Tue 10:52:00 PM 40.6524 -75.4404 66° East  Level Estimated
Tue 10:53:00 PM 40.6524 -75.4404 66° East  Level Estimated
Tue 10:54:00 PM 40.6524 -75.4404 66° East  Level Estimated
Tue 10:55:00 PM 40.6524 -75.4404 66° East  Level Estimated
Tue 10:56:00 PM 40.6524 -75.4404 66° East  Level Estimated
Tue 10:57:00 PM 40.6524 -75.4404 66° East  Level Estimated
Tue 10:58:00 PM 40.6524 -75.4404 66° East  Level Estimated
Tue 10:59:00 PM 40.6524 -75.4404 66° East  Level Estimated
Tue 11:00:00 PM 40.6524 -75.4404 66° East  Level Estimated
Tue 11:01:00 PM 40.6524 -75.4404 66° East  Level Estimated
Tue 11:02:00 PM 40.6524 -75.4404 66° East  Level Estimated
Tue 11:03:00 PM 40.6524 -75.4404 66° East  Level Estimated

Login

Don't have an account? Register now (free) for customized features, flight alerts, and more!